sensor_id;sensor_type;location;lat;lon;timestamp;P1;durP1;ratioP1;P2;durP2;ratioP2
2001;SDS011;1003;48.002;7.788;2022-12-24T00:00:10;4.70;;;1.20;;
2001;SDS011;1003;48.002;7.788;2022-12-24T00:02:41;4.53;;;1.20;;
2001;SDS011;1003;48.002;7.788;2022-12-24T00:05:10;4.53;;;1.23;;
2001;SDS011;1003;48.002;7.788;2022-12-24T00:07:37;3.27;;;1.63;;
2001;SDS011;1003;48.002;7.788;2022-12-24T00:10:04;7.23;;;1.60;;
2001;SDS011;1003;48.002;7.788;2022-12-24T00:12:33;5.37;;;1.37;;
2001;SDS011;1003;48.002;7.788;2022-12-24T00:15:00;3.00;;;1.37;;
2001;SDS011;1003;48.002;7.788;2022-12-24T00:17:28;1.10;;;1.00;;
2001;SDS011;1003;48.002;7.788;2022-12-24T00:19:55;4.07;;;1.30;;
2001;SDS011;1003;48.002;7.788;2022-12-24T00:22:24;2.20;;;1.17;;
2001;SDS011;1003;48.002;7.788;2022-12-24T00:24:51;3.70;;;1.60;;
2001;SDS011;1003;48.002;7.788;2022-12-24T00:27:18;3.43;;;1.40;;
2001;SDS011;1003;48.002;7.788;2022-12-24T00:29:45;2.27;;;1.10;;
2001;SDS011;1003;48.002;7.788;2022-12-24T00:32:12;2.90;;;1.67;;
2001;SDS011;1003;48.002;7.788;2022-12-24T00:34:39;3.77;;;1.40;;
2001;SDS011;1003;48.002;7.788;2022-12-24T00:37:06;3.30;;;1.63;;
2001;SDS011;1003;48.002;7.788;2022-12-24T00:39:34;5.63;;;1.53;;
2001;SDS011;1003;48.002;7.788;2022-12-24T00:42:01;4.90;;;1.43;;
2001;SDS011;1003;48.002;7.788;2022-12-24T00:44:28;3.63;;;1.57;;
2001;SDS011;1003;48.002;7.788;2022-12-24T00:46:55;2.60;;;1.70;;
2001;SDS011;1003;48.002;7.788;2022-12-24T00:49:22;3.27;;;1.23;;
2001;SDS011;1003;48.002;7.788;2022-12-24T00:51:49;2.67;;;1.57;;
2001;SDS011;1003;48.002;7.788;2022-12-24T00:54:16;4.37;;;1.60;;
2001;SDS011;1003;48.002;7.788;2022-12-24T00:56:45;2.57;;;1.40;;
2001;SDS011;1003;48.002;7.788;2022-12-24T00:59:12;3.07;;;1.50;;
2001;SDS011;1003;48.002;7.788;2022-12-24T01:01:39;1.83;;;1.50;;
2001;SDS011;1003;48.002;7.788;2022-12-24T01:04:06;4.00;;;1.57;;
2001;SDS011;1003;48.002;7.788;2022-12-24T01:06:56;2.40;;;1.50;;
2001;SDS011;1003;48.002;7.788;2022-12-24T01:09:23;3.97;;;1.60;;
2001;SDS011;1003;48.002;7.788;2022-12-24T01:11:51;6.20;;;1.97;;
2001;SDS011;1003;48.002;7.788;2022-12-24T01:14:18;4.20;;;1.40;;
2001;SDS011;1003;48.002;7.788;2022-12-24T01:16:45;3.93;;;1.63;;
2001;SDS011;1003;48.002;7.788;2022-12-24T01:19:12;2.40;;;1.50;;
2001;SDS011;1003;48.002;7.788;2022-12-24T01:21:39;4.03;;;1.60;;
2001;SDS011;1003;48.002;7.788;2022-12-24T01:24:08;2.97;;;1.40;;
2001;SDS011;1003;48.002;7.788;2022-12-24T01:26:39;4.70;;;1.50;;
2001;SDS011;1003;48.002;7.788;2022-12-24T01:29:08;3.50;;;1.60;;
2001;SDS011;1003;48.002;7.788;2022-12-24T01:31:35;4.53;;;1.30;;
2001;SDS011;1003;48.002;7.788;2022-12-24T01:34:02;5.67;;;1.43;;
2001;SDS011;1003;48.002;7.788;2022-12-24T01:36:29;1.73;;;1.33;;
2001;SDS011;1003;48.002;7.788;2022-12-24T01:38:56;4.10;;;1.60;;
2001;SDS011;1003;48.002;7.788;2022-12-24T01:41:23;2.97;;;1.50;;
2001;SDS011;1003;48.002;7.788;2022-12-24T01:44:20;3.60;;;1.33;;
2001;SDS011;1003;48.002;7.788;2022-12-24T01:46:52;1.53;;;1.30;;
2001;SDS011;1003;48.002;7.788;2022-12-24T01:49:25;3.33;;;1.60;;
2001;SDS011;1003;48.002;7.788;2022-12-24T01:51:53;2.77;;;1.50;;
2001;SDS011;1003;48.002;7.788;2022-12-24T01:54:27;4.50;;;1.40;;
2001;SDS011;1003;48.002;7.788;2022-12-24T01:57:01;2.73;;;1.30;;
2001;SDS011;1003;48.002;7.788;2022-12-24T01:59:35;2.57;;;1.40;;
2001;SDS011;1003;48.002;7.788;2022-12-24T02:02:06;2.77;;;1.50;;
2001;SDS011;1003;48.002;7.788;2022-12-24T02:04:35;5.33;;;1.37;;
2001;SDS011;1003;48.002;7.788;2022-12-24T02:07:07;5.27;;;1.87;;
2001;SDS011;1003;48.002;7.788;2022-12-24T02:09:34;7.40;;;1.77;;
2001;SDS011;1003;48.002;7.788;2022-12-24T02:12:03;4.00;;;1.67;;
2001;SDS011;1003;48.002;7.788;2022-12-24T02:14:32;4.83;;;1.80;;
2001;SDS011;1003;48.002;7.788;2022-12-24T02:17:03;5.77;;;1.60;;
2001;SDS011;1003;48.002;7.788;2022-12-24T02:19:51;3.80;;;1.40;;
2001;SDS011;1003;48.002;7.788;2022-12-24T02:23:06;2.90;;;1.53;;
2001;SDS011;1003;48.002;7.788;2022-12-24T02:26:02;3.97;;;1.83;;
2001;SDS011;1003;48.002;7.788;2022-12-24T02:28:58;4.57;;;1.90;;
2001;SDS011;1003;48.002;7.788;2022-12-24T02:32:03;4.37;;;1.63;;
2001;SDS011;1003;48.002;7.788;2022-12-24T02:34:39;6.93;;;1.70;;
2001;SDS011;1003;48.002;7.788;2022-12-24T02:37:17;6.50;;;1.97;;
2001;SDS011;1003;48.002;7.788;2022-12-24T02:39:51;7.27;;;2.07;;
2001;SDS011;1003;48.002;7.788;2022-12-24T02:42:28;8.07;;;1.70;;
2001;SDS011;1003;48.002;7.788;2022-12-24T02:45:03;3.03;;;1.40;;
2001;SDS011;1003;48.002;7.788;2022-12-24T02:47:36;5.27;;;1.60;;
2001;SDS011;1003;48.002;7.788;2022-12-24T02:50:06;6.87;;;1.40;;
2001;SDS011;1003;48.002;7.788;2022-12-24T02:52:37;5.40;;;2.00;;
2001;SDS011;1003;48.002;7.788;2022-12-24T02:55:09;4.50;;;1.17;;
2001;SDS011;1003;48.002;7.788;2022-12-24T03:00:48;4.23;;;1.43;;
2001;SDS011;1003;48.002;7.788;2022-12-24T03:03:43;6.40;;;1.57;;
2001;SDS011;1003;48.002;7.788;2022-12-24T03:06:31;5.50;;;1.77;;
2001;SDS011;1003;48.002;7.788;2022-12-24T03:09:17;6.77;;;1.80;;
2001;SDS011;1003;48.002;7.788;2022-12-24T03:11:54;7.57;;;1.67;;
2001;SDS011;1003;48.002;7.788;2022-12-24T03:14:29;4.80;;;1.60;;
2001;SDS011;1003;48.002;7.788;2022-12-24T03:16:59;4.33;;;1.70;;
2001;SDS011;1003;48.002;7.788;2022-12-24T03:19:30;3.47;;;1.40;;
2001;SDS011;1003;48.002;7.788;2022-12-24T03:21:58;4.17;;;1.60;;
2001;SDS011;1003;48.002;7.788;2022-12-24T03:24:32;6.63;;;1.70;;
2001;SDS011;1003;48.002;7.788;2022-12-24T03:26:59;4.10;;;2.10;;
2001;SDS011;1003;48.002;7.788;2022-12-24T03:29:29;6.67;;;2.17;;
2001;SDS011;1003;48.002;7.788;2022-12-24T03:31:58;4.07;;;1.70;;
2001;SDS011;1003;48.002;7.788;2022-12-24T03:34:28;8.53;;;2.37;;
2001;SDS011;1003;48.002;7.788;2022-12-24T03:36:57;4.33;;;1.60;;
2001;SDS011;1003;48.002;7.788;2022-12-24T03:39:24;6.13;;;1.57;;
2001;SDS011;1003;48.002;7.788;2022-12-24T03:41:51;6.47;;;1.60;;
2001;SDS011;1003;48.002;7.788;2022-12-24T03:44:18;5.90;;;1.80;;
2001;SDS011;1003;48.002;7.788;2022-12-24T03:46:45;4.50;;;1.70;;
2001;SDS011;1003;48.002;7.788;2022-12-24T03:49:13;5.23;;;1.73;;
2001;SDS011;1003;48.002;7.788;2022-12-24T03:51:41;4.13;;;1.63;;
2001;SDS011;1003;48.002;7.788;2022-12-24T03:54:08;6.93;;;1.67;;
2001;SDS011;1003;48.002;7.788;2022-12-24T03:56:35;7.10;;;1.93;;
2001;SDS011;1003;48.002;7.788;2022-12-24T03:59:02;8.77;;;1.90;;
2001;SDS011;1003;48.002;7.788;2022-12-24T04:01:29;8.10;;;1.60;;
2001;SDS011;1003;48.002;7.788;2022-12-24T04:03:56;2.70;;;1.67;;
2001;SDS011;1003;48.002;7.788;2022-12-24T04:06:23;6.87;;;2.00;;
2001;SDS011;1003;48.002;7.788;2022-12-24T04:08:52;10.70;;;1.90;;
2001;SDS011;1003;48.002;7.788;2022-12-24T04:11:19;6.50;;;1.83;;
2001;SDS011;1003;48.002;7.788;2022-12-24T04:13:46;4.57;;;1.70;;
2001;SDS011;1003;48.002;7.788;2022-12-24T04:16:14;6.30;;;1.93;;
2001;SDS011;1003;48.002;7.788;2022-12-24T04:18:42;5.80;;;2.17;;
2001;SDS011;1003;48.002;7.788;2022-12-24T04:21:10;7.20;;;1.93;;
2001;SDS011;1003;48.002;7.788;2022-12-24T04:23:38;5.87;;;1.77;;
2001;SDS011;1003;48.002;7.788;2022-12-24T04:26:08;4.57;;;1.60;;
2001;SDS011;1003;48.002;7.788;2022-12-24T04:28:38;4.20;;;1.67;;
2001;SDS011;1003;48.002;7.788;2022-12-24T04:31:07;7.80;;;2.00;;
2001;SDS011;1003;48.002;7.788;2022-12-24T04:33:37;8.33;;;1.90;;
2001;SDS011;1003;48.002;7.788;2022-12-24T04:36:05;9.20;;;1.90;;
2001;SDS011;1003;48.002;7.788;2022-12-24T04:38:34;3.87;;;1.70;;
2001;SDS011;1003;48.002;7.788;2022-12-24T04:41:01;6.47;;;2.00;;
2001;SDS011;1003;48.002;7.788;2022-12-24T04:43:34;7.87;;;2.17;;
2001;SDS011;1003;48.002;7.788;2022-12-24T04:46:04;8.47;;;2.00;;
2001;SDS011;1003;48.002;7.788;2022-12-24T04:48:33;5.87;;;1.80;;
2001;SDS011;1003;48.002;7.788;2022-12-24T04:51:01;4.23;;;1.83;;
2001;SDS011;1003;48.002;7.788;2022-12-24T04:53:31;8.23;;;2.10;;
2001;SDS011;1003;48.002;7.788;2022-12-24T04:55:58;7.90;;;2.10;;
2001;SDS011;1003;48.002;7.788;2022-12-24T04:58:26;8.90;;;2.27;;
2001;SDS011;1003;48.002;7.788;2022-12-24T05:00:54;8.70;;;2.20;;
2001;SDS011;1003;48.002;7.788;2022-12-24T05:03:21;8.07;;;2.10;;
2001;SDS011;1003;48.002;7.788;2022-12-24T05:05:48;7.57;;;1.93;;
2001;SDS011;1003;48.002;7.788;2022-12-24T05:08:15;8.93;;;2.00;;
2001;SDS011;1003;48.002;7.788;2022-12-24T05:10:42;7.30;;;2.17;;
2001;SDS011;1003;48.002;7.788;2022-12-24T05:13:09;5.87;;;2.50;;
2001;SDS011;1003;48.002;7.788;2022-12-24T05:15:36;8.40;;;2.00;;
2001;SDS011;1003;48.002;7.788;2022-12-24T05:18:05;7.87;;;2.10;;
2001;SDS011;1003;48.002;7.788;2022-12-24T05:20:32;7.43;;;2.20;;
2001;SDS011;1003;48.002;7.788;2022-12-24T05:22:59;10.07;;;2.37;;
2001;SDS011;1003;48.002;7.788;2022-12-24T05:25:43;9.73;;;2.00;;
2001;SDS011;1003;48.002;7.788;2022-12-24T05:28:28;7.73;;;2.13;;
2001;SDS011;1003;48.002;7.788;2022-12-24T05:30:55;10.40;;;2.27;;
2001;SDS011;1003;48.002;7.788;2022-12-24T05:33:23;7.97;;;2.30;;
2001;SDS011;1003;48.002;7.788;2022-12-24T05:35:50;9.00;;;1.90;;
2001;SDS011;1003;48.002;7.788;2022-12-24T05:38:17;7.23;;;1.93;;
2001;SDS011;1003;48.002;7.788;2022-12-24T05:40:45;5.00;;;1.80;;
2001;SDS011;1003;48.002;7.788;2022-12-24T05:43:12;7.40;;;1.97;;
2001;SDS011;1003;48.002;7.788;2022-12-24T05:45:39;7.80;;;2.00;;
2001;SDS011;1003;48.002;7.788;2022-12-24T05:48:06;5.80;;;2.30;;
2001;SDS011;1003;48.002;7.788;2022-12-24T05:50:35;6.63;;;2.00;;
2001;SDS011;1003;48.002;7.788;2022-12-24T05:53:04;6.43;;;2.07;;
2001;SDS011;1003;48.002;7.788;2022-12-24T05:55:31;10.60;;;2.40;;
2001;SDS011;1003;48.002;7.788;2022-12-24T05:57:59;6.60;;;2.13;;
2001;SDS011;1003;48.002;7.788;2022-12-24T06:00:26;11.00;;;2.30;;
2001;SDS011;1003;48.002;7.788;2022-12-24T06:02:53;6.17;;;1.83;;
2001;SDS011;1003;48.002;7.788;2022-12-24T06:05:20;9.70;;;1.70;;
2001;SDS011;1003;48.002;7.788;2022-12-24T06:07:49;5.37;;;1.50;;
2001;SDS011;1003;48.002;7.788;2022-12-24T06:10:16;6.00;;;1.97;;
2001;SDS011;1003;48.002;7.788;2022-12-24T06:12:43;10.00;;;2.57;;
2001;SDS011;1003;48.002;7.788;2022-12-24T06:15:10;7.53;;;1.90;;
2001;SDS011;1003;48.002;7.788;2022-12-24T06:17:37;9.47;;;2.10;;
2001;SDS011;1003;48.002;7.788;2022-12-24T06:20:05;5.83;;;2.00;;
2001;SDS011;1003;48.002;7.788;2022-12-24T06:22:33;7.47;;;2.10;;
2001;SDS011;1003;48.002;7.788;2022-12-24T06:25:02;8.03;;;1.80;;
2001;SDS011;1003;48.002;7.788;2022-12-24T06:27:29;4.97;;;1.77;;
2001;SDS011;1003;48.002;7.788;2022-12-24T06:29:56;5.37;;;1.80;;
2001;SDS011;1003;48.002;7.788;2022-12-24T06:32:23;5.03;;;1.67;;
2001;SDS011;1003;48.002;7.788;2022-12-24T06:34:51;5.07;;;1.70;;
2001;SDS011;1003;48.002;7.788;2022-12-24T06:37:18;6.90;;;1.90;;
2001;SDS011;1003;48.002;7.788;2022-12-24T06:39:45;6.03;;;1.80;;
2001;SDS011;1003;48.002;7.788;2022-12-24T06:42:14;6.97;;;1.97;;
2001;SDS011;1003;48.002;7.788;2022-12-24T06:44:41;4.97;;;1.67;;
2001;SDS011;1003;48.002;7.788;2022-12-24T06:47:08;9.23;;;2.00;;
2001;SDS011;1003;48.002;7.788;2022-12-24T06:49:35;8.10;;;2.10;;
2001;SDS011;1003;48.002;7.788;2022-12-24T06:52:02;6.90;;;1.90;;
2001;SDS011;1003;48.002;7.788;2022-12-24T06:54:29;8.27;;;2.27;;
2001;SDS011;1003;48.002;7.788;2022-12-24T06:56:56;8.83;;;1.97;;
2001;SDS011;1003;48.002;7.788;2022-12-24T06:59:25;8.20;;;2.00;;
2001;SDS011;1003;48.002;7.788;2022-12-24T07:01:52;6.10;;;1.90;;
2001;SDS011;1003;48.002;7.788;2022-12-24T07:04:18;8.03;;;2.37;;
2001;SDS011;1003;48.002;7.788;2022-12-24T07:06:45;7.43;;;2.03;;
2001;SDS011;1003;48.002;7.788;2022-12-24T07:09:13;8.80;;;2.00;;
2001;SDS011;1003;48.002;7.788;2022-12-24T07:11:40;5.77;;;1.87;;
2001;SDS011;1003;48.002;7.788;2022-12-24T07:14:07;6.67;;;2.20;;
2001;SDS011;1003;48.002;7.788;2022-12-24T07:16:35;6.33;;;1.93;;
2001;SDS011;1003;48.002;7.788;2022-12-24T07:19:02;6.60;;;1.93;;
2001;SDS011;1003;48.002;7.788;2022-12-24T07:21:29;6.20;;;2.20;;
2001;SDS011;1003;48.002;7.788;2022-12-24T07:23:56;4.43;;;2.10;;
2001;SDS011;1003;48.002;7.788;2022-12-24T07:26:24;4.03;;;1.80;;
2001;SDS011;1003;48.002;7.788;2022-12-24T07:28:51;10.17;;;2.40;;
2001;SDS011;1003;48.002;7.788;2022-12-24T07:31:18;8.67;;;1.97;;
2001;SDS011;1003;48.002;7.788;2022-12-24T07:33:46;7.47;;;2.20;;
2001;SDS011;1003;48.002;7.788;2022-12-24T07:36:16;6.30;;;1.87;;
2001;SDS011;1003;48.002;7.788;2022-12-24T07:38:46;7.30;;;2.10;;
2001;SDS011;1003;48.002;7.788;2022-12-24T07:41:13;4.20;;;2.30;;
2001;SDS011;1003;48.002;7.788;2022-12-24T07:43:41;7.47;;;2.20;;
2001;SDS011;1003;48.002;7.788;2022-12-24T07:46:08;8.67;;;2.13;;
2001;SDS011;1003;48.002;7.788;2022-12-24T07:48:35;7.63;;;1.90;;
2001;SDS011;1003;48.002;7.788;2022-12-24T07:51:03;5.97;;;2.00;;
2001;SDS011;1003;48.002;7.788;2022-12-24T07:53:31;5.87;;;1.73;;
2001;SDS011;1003;48.002;7.788;2022-12-24T07:55:58;6.70;;;2.07;;
2001;SDS011;1003;48.002;7.788;2022-12-24T07:58:26;7.50;;;2.17;;
2001;SDS011;1003;48.002;7.788;2022-12-24T08:00:56;7.00;;;2.20;;
2001;SDS011;1003;48.002;7.788;2022-12-24T08:03:24;6.93;;;2.40;;
2001;SDS011;1003;48.002;7.788;2022-12-24T08:05:52;9.67;;;2.20;;
2001;SDS011;1003;48.002;7.788;2022-12-24T08:08:20;5.30;;;1.80;;
2001;SDS011;1003;48.002;7.788;2022-12-24T08:10:47;10.67;;;2.20;;
2001;SDS011;1003;48.002;7.788;2022-12-24T08:13:14;5.77;;;1.87;;
2001;SDS011;1003;48.002;7.788;2022-12-24T08:15:42;6.23;;;2.20;;
2001;SDS011;1003;48.002;7.788;2022-12-24T08:18:10;8.03;;;2.23;;
2001;SDS011;1003;48.002;7.788;2022-12-24T08:20:37;10.50;;;2.23;;
2001;SDS011;1003;48.002;7.788;2022-12-24T08:23:05;10.73;;;2.23;;
2001;SDS011;1003;48.002;7.788;2022-12-24T08:25:34;10.53;;;2.20;;
2001;SDS011;1003;48.002;7.788;2022-12-24T08:28:02;5.03;;;1.83;;
2001;SDS011;1003;48.002;7.788;2022-12-24T08:30:30;5.80;;;1.70;;
2001;SDS011;1003;48.002;7.788;2022-12-24T08:32:57;3.60;;;1.90;;
2001;SDS011;1003;48.002;7.788;2022-12-24T08:35:24;6.97;;;1.97;;
2001;SDS011;1003;48.002;7.788;2022-12-24T08:37:51;6.60;;;1.83;;
2001;SDS011;1003;48.002;7.788;2022-12-24T08:40:18;6.73;;;2.00;;
2001;SDS011;1003;48.002;7.788;2022-12-24T08:42:49;6.57;;;1.80;;
2001;SDS011;1003;48.002;7.788;2022-12-24T08:45:16;10.27;;;2.10;;
2001;SDS011;1003;48.002;7.788;2022-12-24T08:47:44;6.47;;;2.00;;
2001;SDS011;1003;48.002;7.788;2022-12-24T08:50:11;8.03;;;1.90;;
2001;SDS011;1003;48.002;7.788;2022-12-24T08:52:38;5.23;;;1.90;;
2001;SDS011;1003;48.002;7.788;2022-12-24T08:55:06;7.43;;;1.87;;
2001;SDS011;1003;48.002;7.788;2022-12-24T08:57:34;6.53;;;2.10;;
2001;SDS011;1003;48.002;7.788;2022-12-24T09:00:04;4.80;;;1.90;;
2001;SDS011;1003;48.002;7.788;2022-12-24T09:02:33;5.37;;;1.70;;
2001;SDS011;1003;48.002;7.788;2022-12-24T09:05:00;7.17;;;2.27;;
2001;SDS011;1003;48.002;7.788;2022-12-24T09:07:28;8.83;;;1.87;;
2001;SDS011;1003;48.002;7.788;2022-12-24T09:09:55;5.50;;;1.90;;
2001;SDS011;1003;48.002;7.788;2022-12-24T09:12:22;7.93;;;2.10;;
2001;SDS011;1003;48.002;7.788;2022-12-24T09:14:49;5.00;;;1.60;;
2001;SDS011;1003;48.002;7.788;2022-12-24T09:17:19;6.00;;;1.87;;
2001;SDS011;1003;48.002;7.788;2022-12-24T09:19:47;4.13;;;1.57;;
2001;SDS011;1003;48.002;7.788;2022-12-24T09:22:14;7.30;;;1.60;;
2001;SDS011;1003;48.002;7.788;2022-12-24T09:24:41;4.70;;;1.60;;
2001;SDS011;1003;48.002;7.788;2022-12-24T09:27:08;5.07;;;1.57;;
2001;SDS011;1003;48.002;7.788;2022-12-24T09:29:35;4.83;;;1.70;;
2001;SDS011;1003;48.002;7.788;2022-12-24T09:32:04;3.93;;;1.40;;
2001;SDS011;1003;48.002;7.788;2022-12-24T09:34:33;4.27;;;1.43;;
2001;SDS011;1003;48.002;7.788;2022-12-24T09:37:00;4.47;;;1.43;;
2001;SDS011;1003;48.002;7.788;2022-12-24T09:39:27;3.90;;;1.47;;
2001;SDS011;1003;48.002;7.788;2022-12-24T09:41:56;2.97;;;1.40;;
2001;SDS011;1003;48.002;7.788;2022-12-24T09:44:42;3.53;;;1.40;;
2001;SDS011;1003;48.002;7.788;2022-12-24T09:47:18;3.93;;;1.47;;
2001;SDS011;1003;48.002;7.788;2022-12-24T09:49:56;4.03;;;1.60;;
2001;SDS011;1003;48.002;7.788;2022-12-24T09:52:28;4.50;;;1.60;;
2001;SDS011;1003;48.002;7.788;2022-12-24T09:55:06;2.80;;;1.33;;
2001;SDS011;1003;48.002;7.788;2022-12-24T09:57:50;2.47;;;1.27;;
2001;SDS011;1003;48.002;7.788;2022-12-24T10:00:22;2.90;;;1.37;;
2001;SDS011;1003;48.002;7.788;2022-12-24T10:02:52;2.73;;;1.13;;
2001;SDS011;1003;48.002;7.788;2022-12-24T10:05:25;8.23;;;1.70;;
2001;SDS011;1003;48.002;7.788;2022-12-24T10:08:09;2.30;;;1.30;;
2001;SDS011;1003;48.002;7.788;2022-12-24T10:10:51;4.27;;;1.27;;
2001;SDS011;1003;48.002;7.788;2022-12-24T10:13:25;2.77;;;1.20;;
2001;SDS011;1003;48.002;7.788;2022-12-24T10:16:09;1.63;;;1.00;;
2001;SDS011;1003;48.002;7.788;2022-12-24T10:18:50;4.00;;;1.30;;
2001;SDS011;1003;48.002;7.788;2022-12-24T10:21:32;1.93;;;1.20;;
2001;SDS011;1003;48.002;7.788;2022-12-24T10:24:11;3.27;;;1.10;;
2001;SDS011;1003;48.002;7.788;2022-12-24T10:26:47;2.30;;;1.23;;
2001;SDS011;1003;48.002;7.788;2022-12-24T10:29:21;3.13;;;1.00;;
2001;SDS011;1003;48.002;7.788;2022-12-24T10:31:55;3.43;;;1.10;;
2001;SDS011;1003;48.002;7.788;2022-12-24T10:34:40;2.37;;;1.17;;
2001;SDS011;1003;48.002;7.788;2022-12-24T10:37:14;1.23;;;0.80;;
2001;SDS011;1003;48.002;7.788;2022-12-24T10:39:47;2.50;;;1.00;;
2001;SDS011;1003;48.002;7.788;2022-12-24T10:42:15;3.13;;;1.03;;
2001;SDS011;1003;48.002;7.788;2022-12-24T10:44:44;3.33;;;1.00;;
2001;SDS011;1003;48.002;7.788;2022-12-24T10:47:17;2.87;;;1.00;;
2001;SDS011;1003;48.002;7.788;2022-12-24T10:49:47;4.20;;;1.20;;
2001;SDS011;1003;48.002;7.788;2022-12-24T10:52:28;2.83;;;1.07;;
2001;SDS011;1003;48.002;7.788;2022-12-24T10:55:07;2.00;;;1.07;;
2001;SDS011;1003;48.002;7.788;2022-12-24T10:57:46;2.13;;;1.10;;
2001;SDS011;1003;48.002;7.788;2022-12-24T11:00:25;2.77;;;1.10;;
2001;SDS011;1003;48.002;7.788;2022-12-24T11:03:04;1.13;;;0.70;;
2001;SDS011;1003;48.002;7.788;2022-12-24T11:05:48;1.60;;;1.00;;
2001;SDS011;1003;48.002;7.788;2022-12-24T11:08:29;4.60;;;1.00;;
2001;SDS011;1003;48.002;7.788;2022-12-24T11:10:58;1.80;;;1.10;;
2001;SDS011;1003;48.002;7.788;2022-12-24T11:13:28;2.17;;;1.20;;
2001;SDS011;1003;48.002;7.788;2022-12-24T11:15:59;2.50;;;0.80;;
2001;SDS011;1003;48.002;7.788;2022-12-24T11:18:31;3.33;;;1.00;;
2001;SDS011;1003;48.002;7.788;2022-12-24T11:21:02;3.27;;;1.30;;
2001;SDS011;1003;48.002;7.788;2022-12-24T11:23:32;3.23;;;1.10;;
2001;SDS011;1003;48.002;7.788;2022-12-24T11:25:59;1.67;;;1.00;;
2001;SDS011;1003;48.002;7.788;2022-12-24T11:28:28;1.80;;;1.17;;
2001;SDS011;1003;48.002;7.788;2022-12-24T11:30:59;2.50;;;1.10;;
2001;SDS011;1003;48.002;7.788;2022-12-24T11:33:30;2.80;;;1.10;;
2001;SDS011;1003;48.002;7.788;2022-12-24T11:36:11;2.30;;;1.03;;
2001;SDS011;1003;48.002;7.788;2022-12-24T11:38:41;3.13;;;1.07;;
2001;SDS011;1003;48.002;7.788;2022-12-24T11:41:08;1.20;;;1.10;;
2001;SDS011;1003;48.002;7.788;2022-12-24T11:43:39;0.80;;;0.67;;
2001;SDS011;1003;48.002;7.788;2022-12-24T11:46:34;4.60;;;1.40;;
2001;SDS011;1003;48.002;7.788;2022-12-24T11:49:05;3.13;;;1.30;;
2001;SDS011;1003;48.002;7.788;2022-12-24T11:51:56;1.77;;;1.30;;
2001;SDS011;1003;48.002;7.788;2022-12-24T11:54:58;1.80;;;1.00;;
2001;SDS011;1003;48.002;7.788;2022-12-24T11:57:45;4.17;;;1.23;;
2001;SDS011;1003;48.002;7.788;2022-12-24T12:00:22;1.70;;;0.93;;
2001;SDS011;1003;48.002;7.788;2022-12-24T12:02:51;1.20;;;0.90;;
2001;SDS011;1003;48.002;7.788;2022-12-24T12:05:25;0.80;;;0.80;;
2001;SDS011;1003;48.002;7.788;2022-12-24T12:08:00;1.20;;;1.00;;
2001;SDS011;1003;48.002;7.788;2022-12-24T12:10:40;2.17;;;0.90;;
2001;SDS011;1003;48.002;7.788;2022-12-24T12:13:12;1.93;;;1.27;;
2001;SDS011;1003;48.002;7.788;2022-12-24T12:15:46;1.43;;;1.00;;
2001;SDS011;1003;48.002;7.788;2022-12-24T12:18:21;2.03;;;0.90;;
2001;SDS011;1003;48.002;7.788;2022-12-24T12:20:54;5.93;;;2.60;;
2001;SDS011;1003;48.002;7.788;2022-12-24T12:23:29;2.77;;;1.40;;
2001;SDS011;1003;48.002;7.788;2022-12-24T12:26:03;2.40;;;0.93;;
2001;SDS011;1003;48.002;7.788;2022-12-24T12:28:39;1.90;;;1.27;;
2001;SDS011;1003;48.002;7.788;2022-12-24T12:31:12;1.80;;;1.10;;
2001;SDS011;1003;48.002;7.788;2022-12-24T12:33:46;2.60;;;1.00;;
2001;SDS011;1003;48.002;7.788;2022-12-24T12:36:21;1.90;;;1.03;;
2001;SDS011;1003;48.002;7.788;2022-12-24T12:38:54;2.23;;;0.97;;
2001;SDS011;1003;48.002;7.788;2022-12-24T12:41:25;3.03;;;1.27;;
2001;SDS011;1003;48.002;7.788;2022-12-24T12:44:17;1.30;;;0.90;;
2001;SDS011;1003;48.002;7.788;2022-12-24T12:47:12;2.23;;;1.17;;
2001;SDS011;1003;48.002;7.788;2022-12-24T12:50:02;1.43;;;0.80;;
2001;SDS011;1003;48.002;7.788;2022-12-24T12:52:45;2.00;;;1.10;;
2001;SDS011;1003;48.002;7.788;2022-12-24T12:55:48;4.67;;;1.60;;
2001;SDS011;1003;48.002;7.788;2022-12-24T12:58:28;3.03;;;1.10;;
2001;SDS011;1003;48.002;7.788;2022-12-24T13:01:04;2.57;;;1.27;;
2001;SDS011;1003;48.002;7.788;2022-12-24T13:04:01;1.53;;;1.00;;
2001;SDS011;1003;48.002;7.788;2022-12-24T13:07:08;2.27;;;1.10;;
2001;SDS011;1003;48.002;7.788;2022-12-24T13:10:32;2.37;;;1.40;;
2001;SDS011;1003;48.002;7.788;2022-12-24T13:13:31;2.40;;;1.30;;
2001;SDS011;1003;48.002;7.788;2022-12-24T13:16:31;2.67;;;1.40;;
2001;SDS011;1003;48.002;7.788;2022-12-24T13:19:36;3.23;;;1.10;;
2001;SDS011;1003;48.002;7.788;2022-12-24T13:22:24;2.13;;;1.30;;
2001;SDS011;1003;48.002;7.788;2022-12-24T13:24:52;3.07;;;1.20;;
2001;SDS011;1003;48.002;7.788;2022-12-24T13:27:22;1.27;;;1.13;;
2001;SDS011;1003;48.002;7.788;2022-12-24T13:29:54;1.97;;;0.97;;
2001;SDS011;1003;48.002;7.788;2022-12-24T13:32:36;3.80;;;1.13;;
2001;SDS011;1003;48.002;7.788;2022-12-24T13:35:25;3.10;;;1.33;;
2001;SDS011;1003;48.002;7.788;2022-12-24T13:44:16;3.60;;;1.33;;
2001;SDS011;1003;48.002;7.788;2022-12-24T13:46:51;2.00;;;1.30;;
2001;SDS011;1003;48.002;7.788;2022-12-24T13:49:25;2.03;;;1.43;;
2001;SDS011;1003;48.002;7.788;2022-12-24T13:55:04;3.90;;;1.50;;
2001;SDS011;1003;48.002;7.788;2022-12-24T13:57:40;2.43;;;0.90;;
2001;SDS011;1003;48.002;7.788;2022-12-24T14:00:24;3.73;;;1.40;;
2001;SDS011;1003;48.002;7.788;2022-12-24T14:03:06;3.23;;;1.33;;
2001;SDS011;1003;48.002;7.788;2022-12-24T14:05:49;4.73;;;1.40;;
2001;SDS011;1003;48.002;7.788;2022-12-24T14:08:26;5.63;;;1.33;;
2001;SDS011;1003;48.002;7.788;2022-12-24T14:11:02;3.20;;;1.53;;
2001;SDS011;1003;48.002;7.788;2022-12-24T14:16:51;2.57;;;1.07;;
2001;SDS011;1003;48.002;7.788;2022-12-24T14:19:24;3.10;;;1.33;;
2001;SDS011;1003;48.002;7.788;2022-12-24T14:21:58;2.23;;;1.20;;
2001;SDS011;1003;48.002;7.788;2022-12-24T14:24:31;2.93;;;1.30;;
2001;SDS011;1003;48.002;7.788;2022-12-24T14:27:06;1.63;;;1.27;;
2001;SDS011;1003;48.002;7.788;2022-12-24T14:29:45;5.50;;;2.73;;
2001;SDS011;1003;48.002;7.788;2022-12-24T14:32:17;4.23;;;3.13;;
2001;SDS011;1003;48.002;7.788;2022-12-24T14:34:46;2.87;;;1.67;;
2001;SDS011;1003;48.002;7.788;2022-12-24T14:37:32;2.70;;;1.80;;
2001;SDS011;1003;48.002;7.788;2022-12-24T14:40:00;3.07;;;1.93;;
2001;SDS011;1003;48.002;7.788;2022-12-24T14:42:31;4.20;;;2.20;;
2001;SDS011;1003;48.002;7.788;2022-12-24T14:45:15;2.93;;;1.70;;
2001;SDS011;1003;48.002;7.788;2022-12-24T14:47:55;3.73;;;1.27;;
2001;SDS011;1003;48.002;7.788;2022-12-24T14:50:47;3.27;;;1.03;;
2001;SDS011;1003;48.002;7.788;2022-12-24T14:53:44;2.67;;;1.20;;
2001;SDS011;1003;48.002;7.788;2022-12-24T14:56:40;5.90;;;1.33;;
2001;SDS011;1003;48.002;7.788;2022-12-24T14:59:13;2.60;;;1.33;;
2001;SDS011;1003;48.002;7.788;2022-12-24T15:01:41;4.03;;;1.60;;
2001;SDS011;1003;48.002;7.788;2022-12-24T15:04:16;5.27;;;1.70;;
2001;SDS011;1003;48.002;7.788;2022-12-24T15:06:45;4.13;;;1.20;;
2001;SDS011;1003;48.002;7.788;2022-12-24T15:09:17;4.37;;;1.60;;
2001;SDS011;1003;48.002;7.788;2022-12-24T15:11:48;3.83;;;1.63;;
2001;SDS011;1003;48.002;7.788;2022-12-24T15:14:19;5.37;;;1.83;;
2001;SDS011;1003;48.002;7.788;2022-12-24T15:16:51;2.70;;;1.73;;
2001;SDS011;1003;48.002;7.788;2022-12-24T15:19:23;4.20;;;1.80;;
2001;SDS011;1003;48.002;7.788;2022-12-24T15:21:55;3.80;;;1.60;;
2001;SDS011;1003;48.002;7.788;2022-12-24T15:24:24;4.67;;;1.70;;
2001;SDS011;1003;48.002;7.788;2022-12-24T15:26:56;4.63;;;1.80;;
2001;SDS011;1003;48.002;7.788;2022-12-24T15:29:25;3.93;;;1.97;;
2001;SDS011;1003;48.002;7.788;2022-12-24T15:31:55;5.10;;;2.17;;
2001;SDS011;1003;48.002;7.788;2022-12-24T15:34:25;4.63;;;2.50;;
2001;SDS011;1003;48.002;7.788;2022-12-24T15:37:03;6.47;;;2.67;;
2001;SDS011;1003;48.002;7.788;2022-12-24T15:39:37;3.57;;;2.33;;
2001;SDS011;1003;48.002;7.788;2022-12-24T15:42:06;4.23;;;2.00;;
2001;SDS011;1003;48.002;7.788;2022-12-24T15:44:43;4.47;;;2.10;;
2001;SDS011;1003;48.002;7.788;2022-12-24T15:47:27;6.03;;;2.23;;
2001;SDS011;1003;48.002;7.788;2022-12-24T15:50:02;5.73;;;2.00;;
2001;SDS011;1003;48.002;7.788;2022-12-24T15:52:41;6.03;;;2.17;;
2001;SDS011;1003;48.002;7.788;2022-12-24T15:55:23;4.13;;;1.80;;
2001;SDS011;1003;48.002;7.788;2022-12-24T15:57:52;3.00;;;1.70;;
2001;SDS011;1003;48.002;7.788;2022-12-24T16:00:20;3.83;;;1.80;;
2001;SDS011;1003;48.002;7.788;2022-12-24T16:02:51;4.33;;;2.03;;